sensor_id;sensor_type;location;lat;lon;timestamp;temperature;humidity
26505;DHT22;19493;48.042;7.584;2023-04-24T00:01:39;11.40;99.90
26505;DHT22;19493;48.042;7.584;2023-04-24T00:04:05;11.40;99.90
26505;DHT22;19493;48.042;7.584;2023-04-24T00:06:32;11.40;99.90
26505;DHT22;19493;48.042;7.584;2023-04-24T00:09:00;11.40;99.90
26505;DHT22;19493;48.042;7.584;2023-04-24T00:11:26;11.40;99.90
26505;DHT22;19493;48.042;7.584;2023-04-24T00:13:52;11.40;99.90
26505;DHT22;19493;48.042;7.584;2023-04-24T00:16:17;11.40;99.90
26505;DHT22;19493;48.042;7.584;2023-04-24T00:18:43;11.40;99.90
26505;DHT22;19493;48.042;7.584;2023-04-24T00:21:10;11.30;99.90
26505;DHT22;19493;48.042;7.584;2023-04-24T00:23:36;11.30;99.90
26505;DHT22;19493;48.042;7.584;2023-04-24T00:26:02;11.30;99.90
26505;DHT22;19493;48.042;7.584;2023-04-24T00:28:27;11.30;99.90
26505;DHT22;19493;48.042;7.584;2023-04-24T00:30:53;11.40;99.90
26505;DHT22;19493;48.042;7.584;2023-04-24T00:33:19;11.40;99.90
26505;DHT22;19493;48.042;7.584;2023-04-24T00:35:44;11.50;99.90
26505;DHT22;19493;48.042;7.584;2023-04-24T00:38:10;11.50;99.90
26505;DHT22;19493;48.042;7.584;2023-04-24T00:40:35;11.50;99.90
26505;DHT22;19493;48.042;7.584;2023-04-24T00:43:01;11.50;99.90
26505;DHT22;19493;48.042;7.584;2023-04-24T00:45:27;11.50;99.90
26505;DHT22;19493;48.042;7.584;2023-04-24T00:47:53;11.40;99.90
26505;DHT22;19493;48.042;7.584;2023-04-24T00:50:18;11.40;99.90
26505;DHT22;19493;48.042;7.584;2023-04-24T00:52:46;11.30;99.90
26505;DHT22;19493;48.042;7.584;2023-04-24T00:55:12;11.20;99.90
26505;DHT22;19493;48.042;7.584;2023-04-24T00:57:38;11.10;99.90
26505;DHT22;19493;48.042;7.584;2023-04-24T01:00:05;11.00;99.90
26505;DHT22;19493;48.042;7.584;2023-04-24T01:02:31;11.00;99.90
26505;DHT22;19493;48.042;7.584;2023-04-24T01:05:00;11.00;99.90
26505;DHT22;19493;48.042;7.584;2023-04-24T01:07:27;11.00;99.90
26505;DHT22;19493;48.042;7.584;2023-04-24T01:09:52;11.00;99.90
26505;DHT22;19493;48.042;7.584;2023-04-24T01:12:19;11.00;99.90
26505;DHT22;19493;48.042;7.584;2023-04-24T01:14:45;11.00;99.90
26505;DHT22;19493;48.042;7.584;2023-04-24T01:17:11;11.00;99.90
26505;DHT22;19493;48.042;7.584;2023-04-24T01:19:37;10.90;99.90
26505;DHT22;19493;48.042;7.584;2023-04-24T01:22:08;11.00;99.90
26505;DHT22;19493;48.042;7.584;2023-04-24T01:24:34;11.00;99.90
26505;DHT22;19493;48.042;7.584;2023-04-24T01:26:59;11.00;99.90
26505;DHT22;19493;48.042;7.584;2023-04-24T01:29:26;10.90;99.90
26505;DHT22;19493;48.042;7.584;2023-04-24T01:31:52;10.90;99.90
26505;DHT22;19493;48.042;7.584;2023-04-24T01:34:18;10.90;99.90
26505;DHT22;19493;48.042;7.584;2023-04-24T01:40:07;11.00;99.90
26505;DHT22;19493;48.042;7.584;2023-04-24T01:42:33;11.00;99.90
26505;DHT22;19493;48.042;7.584;2023-04-24T01:44:59;11.00;99.90
26505;DHT22;19493;48.042;7.584;2023-04-24T01:47:25;11.00;99.90
26505;DHT22;19493;48.042;7.584;2023-04-24T01:49:51;11.00;99.90
26505;DHT22;19493;48.042;7.584;2023-04-24T01:52:17;11.10;99.90
26505;DHT22;19493;48.042;7.584;2023-04-24T01:54:44;11.10;99.90
26505;DHT22;19493;48.042;7.584;2023-04-24T01:57:09;11.20;99.90
26505;DHT22;19493;48.042;7.584;2023-04-24T01:59:35;11.20;99.90
26505;DHT22;19493;48.042;7.584;2023-04-24T02:02:04;11.00;99.90
26505;DHT22;19493;48.042;7.584;2023-04-24T02:04:30;10.80;99.90
26505;DHT22;19493;48.042;7.584;2023-04-24T02:06:55;10.60;99.90
26505;DHT22;19493;48.042;7.584;2023-04-24T02:09:21;10.60;99.90
26505;DHT22;19493;48.042;7.584;2023-04-24T02:11:46;10.50;99.90
26505;DHT22;19493;48.042;7.584;2023-04-24T02:14:12;10.40;99.90
26505;DHT22;19493;48.042;7.584;2023-04-24T02:16:37;10.40;99.90
26505;DHT22;19493;48.042;7.584;2023-04-24T02:19:03;10.30;99.90
26505;DHT22;19493;48.042;7.584;2023-04-24T02:21:29;10.20;99.90
26505;DHT22;19493;48.042;7.584;2023-04-24T02:23:56;10.20;99.90
26505;DHT22;19493;48.042;7.584;2023-04-24T02:26:21;10.20;99.90
26505;DHT22;19493;48.042;7.584;2023-04-24T02:28:47;10.20;99.90
26505;DHT22;19493;48.042;7.584;2023-04-24T02:31:13;10.20;99.90
26505;DHT22;19493;48.042;7.584;2023-04-24T02:33:38;10.30;99.90
26505;DHT22;19493;48.042;7.584;2023-04-24T02:36:04;10.20;99.90
26505;DHT22;19493;48.042;7.584;2023-04-24T02:38:29;10.30;99.90
26505;DHT22;19493;48.042;7.584;2023-04-24T02:40:55;10.30;99.90
26505;DHT22;19493;48.042;7.584;2023-04-24T02:43:21;10.30;99.90
26505;DHT22;19493;48.042;7.584;2023-04-24T02:45:47;10.30;99.90
26505;DHT22;19493;48.042;7.584;2023-04-24T02:48:13;10.30;99.90
26505;DHT22;19493;48.042;7.584;2023-04-24T02:50:38;10.40;99.90
26505;DHT22;19493;48.042;7.584;2023-04-24T02:53:04;10.40;99.90
26505;DHT22;19493;48.042;7.584;2023-04-24T02:55:30;10.40;99.90
26505;DHT22;19493;48.042;7.584;2023-04-24T02:57:55;10.30;99.90
26505;DHT22;19493;48.042;7.584;2023-04-24T03:00:21;10.40;99.90
26505;DHT22;19493;48.042;7.584;2023-04-24T03:02:47;10.40;99.90
26505;DHT22;19493;48.042;7.584;2023-04-24T03:05:12;10.40;99.90
26505;DHT22;19493;48.042;7.584;2023-04-24T03:07:38;10.40;99.90
26505;DHT22;19493;48.042;7.584;2023-04-24T03:10:04;10.40;99.90
26505;DHT22;19493;48.042;7.584;2023-04-24T03:12:31;10.50;99.90
26505;DHT22;19493;48.042;7.584;2023-04-24T03:14:56;10.60;99.90
26505;DHT22;19493;48.042;7.584;2023-04-24T03:17:22;10.70;99.90
26505;DHT22;19493;48.042;7.584;2023-04-24T03:19:48;10.80;99.90
26505;DHT22;19493;48.042;7.584;2023-04-24T03:22:13;10.90;99.90
26505;DHT22;19493;48.042;7.584;2023-04-24T03:24:39;10.90;99.90
26505;DHT22;19493;48.042;7.584;2023-04-24T03:27:05;10.90;99.90
26505;DHT22;19493;48.042;7.584;2023-04-24T03:29:31;10.90;99.90
26505;DHT22;19493;48.042;7.584;2023-04-24T03:31:56;10.80;99.90
26505;DHT22;19493;48.042;7.584;2023-04-24T03:34:22;10.70;99.90
26505;DHT22;19493;48.042;7.584;2023-04-24T03:36:47;10.60;99.90
26505;DHT22;19493;48.042;7.584;2023-04-24T03:39:13;10.50;99.90
26505;DHT22;19493;48.042;7.584;2023-04-24T03:41:39;10.40;99.90
26505;DHT22;19493;48.042;7.584;2023-04-24T03:44:04;10.30;99.90
26505;DHT22;19493;48.042;7.584;2023-04-24T03:46:30;10.20;99.90
26505;DHT22;19493;48.042;7.584;2023-04-24T03:48:55;10.10;99.90
26505;DHT22;19493;48.042;7.584;2023-04-24T03:51:21;10.10;99.90
26505;DHT22;19493;48.042;7.584;2023-04-24T03:53:49;10.00;99.90
26505;DHT22;19493;48.042;7.584;2023-04-24T03:56:14;10.00;99.90
26505;DHT22;19493;48.042;7.584;2023-04-24T03:58:40;10.00;99.90
26505;DHT22;19493;48.042;7.584;2023-04-24T04:01:06;9.90;99.90
26505;DHT22;19493;48.042;7.584;2023-04-24T04:03:31;9.90;99.90
26505;DHT22;19493;48.042;7.584;2023-04-24T04:05:57;9.80;99.90
26505;DHT22;19493;48.042;7.584;2023-04-24T04:08:22;9.70;99.90
26505;DHT22;19493;48.042;7.584;2023-04-24T04:10:48;9.70;99.90
26505;DHT22;19493;48.042;7.584;2023-04-24T04:13:13;9.60;99.90
26505;DHT22;19493;48.042;7.584;2023-04-24T04:15:39;9.60;99.90
26505;DHT22;19493;48.042;7.584;2023-04-24T04:18:05;9.50;99.90
26505;DHT22;19493;48.042;7.584;2023-04-24T04:20:31;9.50;99.90
26505;DHT22;19493;48.042;7.584;2023-04-24T04:22:56;9.50;99.90
26505;DHT22;19493;48.042;7.584;2023-04-24T04:25:22;9.60;99.90
26505;DHT22;19493;48.042;7.584;2023-04-24T04:27:48;9.70;99.90
26505;DHT22;19493;48.042;7.584;2023-04-24T04:30:14;9.70;99.90
26505;DHT22;19493;48.042;7.584;2023-04-24T04:32:40;9.60;99.90
26505;DHT22;19493;48.042;7.584;2023-04-24T04:35:06;9.70;99.90
26505;DHT22;19493;48.042;7.584;2023-04-24T04:37:35;9.70;99.90
26505;DHT22;19493;48.042;7.584;2023-04-24T04:40:01;9.70;99.90
26505;DHT22;19493;48.042;7.584;2023-04-24T04:42:31;9.70;99.90
26505;DHT22;19493;48.042;7.584;2023-04-24T04:44:58;9.80;99.90
26505;DHT22;19493;48.042;7.584;2023-04-24T04:47:23;9.80;99.90
26505;DHT22;19493;48.042;7.584;2023-04-24T04:49:49;9.80;99.90
26505;DHT22;19493;48.042;7.584;2023-04-24T04:52:17;9.80;99.90
26505;DHT22;19493;48.042;7.584;2023-04-24T04:54:43;9.80;99.90
26505;DHT22;19493;48.042;7.584;2023-04-24T04:57:08;9.80;99.90
26505;DHT22;19493;48.042;7.584;2023-04-24T04:59:34;9.90;99.90
26505;DHT22;19493;48.042;7.584;2023-04-24T05:02:00;9.80;99.90
26505;DHT22;19493;48.042;7.584;2023-04-24T05:04:25;9.80;99.90
26505;DHT22;19493;48.042;7.584;2023-04-24T05:06:51;9.80;99.90
26505;DHT22;19493;48.042;7.584;2023-04-24T05:09:17;9.90;99.90
26505;DHT22;19493;48.042;7.584;2023-04-24T05:11:43;9.80;99.90
26505;DHT22;19493;48.042;7.584;2023-04-24T05:14:09;9.80;99.90
26505;DHT22;19493;48.042;7.584;2023-04-24T05:16:34;9.80;99.90
26505;DHT22;19493;48.042;7.584;2023-04-24T05:19:00;9.70;99.90
26505;DHT22;19493;48.042;7.584;2023-04-24T05:21:25;9.70;99.90
26505;DHT22;19493;48.042;7.584;2023-04-24T05:23:52;9.60;99.90
26505;DHT22;19493;48.042;7.584;2023-04-24T05:26:17;9.60;99.90
26505;DHT22;19493;48.042;7.584;2023-04-24T05:28:43;9.70;99.90
26505;DHT22;19493;48.042;7.584;2023-04-24T05:31:08;9.70;99.90
26505;DHT22;19493;48.042;7.584;2023-04-24T05:33:34;9.70;99.90
26505;DHT22;19493;48.042;7.584;2023-04-24T05:35:59;9.80;99.90
26505;DHT22;19493;48.042;7.584;2023-04-24T05:38:25;9.90;99.90
26505;DHT22;19493;48.042;7.584;2023-04-24T05:40:50;9.90;99.90
26505;DHT22;19493;48.042;7.584;2023-04-24T05:43:16;10.10;99.90
26505;DHT22;19493;48.042;7.584;2023-04-24T05:45:41;10.30;99.90
26505;DHT22;19493;48.042;7.584;2023-04-24T05:48:07;10.50;99.90
26505;DHT22;19493;48.042;7.584;2023-04-24T05:50:33;10.50;99.90
26505;DHT22;19493;48.042;7.584;2023-04-24T05:52:58;10.60;99.90
26505;DHT22;19493;48.042;7.584;2023-04-24T05:55:24;10.70;99.90
26505;DHT22;19493;48.042;7.584;2023-04-24T05:57:51;10.90;99.90
26505;DHT22;19493;48.042;7.584;2023-04-24T06:00:17;10.90;99.90
26505;DHT22;19493;48.042;7.584;2023-04-24T06:02:44;11.00;99.90
26505;DHT22;19493;48.042;7.584;2023-04-24T06:05:10;11.00;99.90
26505;DHT22;19493;48.042;7.584;2023-04-24T06:07:36;11.10;99.90
26505;DHT22;19493;48.042;7.584;2023-04-24T06:10:02;11.10;99.90
26505;DHT22;19493;48.042;7.584;2023-04-24T06:12:27;11.20;99.90
26505;DHT22;19493;48.042;7.584;2023-04-24T06:14:53;11.20;99.90
26505;DHT22;19493;48.042;7.584;2023-04-24T06:17:20;11.20;99.90
26505;DHT22;19493;48.042;7.584;2023-04-24T06:19:46;11.20;99.90
26505;DHT22;19493;48.042;7.584;2023-04-24T06:22:12;11.20;99.90
26505;DHT22;19493;48.042;7.584;2023-04-24T06:24:37;11.20;99.90
26505;DHT22;19493;48.042;7.584;2023-04-24T06:27:03;11.20;99.90
26505;DHT22;19493;48.042;7.584;2023-04-24T06:29:28;11.20;99.90
26505;DHT22;19493;48.042;7.584;2023-04-24T06:31:54;11.30;99.90
26505;DHT22;19493;48.042;7.584;2023-04-24T06:34:19;11.40;99.90
26505;DHT22;19493;48.042;7.584;2023-04-24T06:36:46;11.40;99.90
26505;DHT22;19493;48.042;7.584;2023-04-24T06:39:12;11.40;99.90
26505;DHT22;19493;48.042;7.584;2023-04-24T06:41:38;11.40;99.90
26505;DHT22;19493;48.042;7.584;2023-04-24T06:44:05;11.40;99.90
26505;DHT22;19493;48.042;7.584;2023-04-24T06:46:30;11.40;99.90
26505;DHT22;19493;48.042;7.584;2023-04-24T06:48:56;11.50;99.90
26505;DHT22;19493;48.042;7.584;2023-04-24T06:51:25;11.60;99.90
26505;DHT22;19493;48.042;7.584;2023-04-24T06:53:54;11.60;99.90
26505;DHT22;19493;48.042;7.584;2023-04-24T06:56:21;11.50;99.90
26505;DHT22;19493;48.042;7.584;2023-04-24T06:58:47;11.40;99.90
26505;DHT22;19493;48.042;7.584;2023-04-24T07:01:13;11.30;99.90
26505;DHT22;19493;48.042;7.584;2023-04-24T07:03:38;11.50;99.90
26505;DHT22;19493;48.042;7.584;2023-04-24T07:06:05;11.70;99.90
26505;DHT22;19493;48.042;7.584;2023-04-24T07:08:30;11.90;99.90
26505;DHT22;19493;48.042;7.584;2023-04-24T07:10:56;12.20;99.90
26505;DHT22;19493;48.042;7.584;2023-04-24T07:13:23;12.40;99.90
26505;DHT22;19493;48.042;7.584;2023-04-24T07:15:49;12.70;99.90
26505;DHT22;19493;48.042;7.584;2023-04-24T07:18:20;12.90;99.90
26505;DHT22;19493;48.042;7.584;2023-04-24T07:20:45;13.10;99.90
26505;DHT22;19493;48.042;7.584;2023-04-24T07:23:11;13.50;99.90
26505;DHT22;19493;48.042;7.584;2023-04-24T07:25:36;13.80;99.90
26505;DHT22;19493;48.042;7.584;2023-04-24T07:28:02;14.00;99.90
26505;DHT22;19493;48.042;7.584;2023-04-24T07:30:28;14.00;99.90
26505;DHT22;19493;48.042;7.584;2023-04-24T07:32:54;13.80;99.90
26505;DHT22;19493;48.042;7.584;2023-04-24T07:35:20;13.60;99.90
26505;DHT22;19493;48.042;7.584;2023-04-24T07:37:46;13.40;99.90
26505;DHT22;19493;48.042;7.584;2023-04-24T07:40:12;13.40;99.90
26505;DHT22;19493;48.042;7.584;2023-04-24T07:42:38;13.30;99.90
26505;DHT22;19493;48.042;7.584;2023-04-24T07:45:05;13.30;99.90
26505;DHT22;19493;48.042;7.584;2023-04-24T07:47:31;13.20;99.90
26505;DHT22;19493;48.042;7.584;2023-04-24T07:49:57;13.00;99.90
26505;DHT22;19493;48.042;7.584;2023-04-24T07:52:23;13.10;99.90
26505;DHT22;19493;48.042;7.584;2023-04-24T07:54:49;13.20;99.90
26505;DHT22;19493;48.042;7.584;2023-04-24T07:57:15;13.30;99.90
26505;DHT22;19493;48.042;7.584;2023-04-24T07:59:41;13.30;99.90
26505;DHT22;19493;48.042;7.584;2023-04-24T08:02:06;13.40;99.90
26505;DHT22;19493;48.042;7.584;2023-04-24T08:04:32;13.40;99.90
26505;DHT22;19493;48.042;7.584;2023-04-24T08:06:58;13.30;99.90
26505;DHT22;19493;48.042;7.584;2023-04-24T08:09:24;13.30;99.90
26505;DHT22;19493;48.042;7.584;2023-04-24T08:11:49;13.40;99.90
26505;DHT22;19493;48.042;7.584;2023-04-24T08:14:15;13.40;99.90
26505;DHT22;19493;48.042;7.584;2023-04-24T08:16:41;13.60;99.90
26505;DHT22;19493;48.042;7.584;2023-04-24T08:19:07;13.70;99.90
26505;DHT22;19493;48.042;7.584;2023-04-24T08:21:33;13.90;99.60
26505;DHT22;19493;48.042;7.584;2023-04-24T08:23:58;14.10;98.40
26505;DHT22;19493;48.042;7.584;2023-04-24T08:26:24;14.00;97.70
26505;DHT22;19493;48.042;7.584;2023-04-24T08:28:50;14.00;96.40
26505;DHT22;19493;48.042;7.584;2023-04-24T08:31:15;13.90;96.70
26505;DHT22;19493;48.042;7.584;2023-04-24T08:33:41;13.80;96.80
26505;DHT22;19493;48.042;7.584;2023-04-24T08:36:07;13.70;96.30
26505;DHT22;19493;48.042;7.584;2023-04-24T08:38:33;13.50;97.20
26505;DHT22;19493;48.042;7.584;2023-04-24T08:41:00;13.40;97.80
26505;DHT22;19493;48.042;7.584;2023-04-24T08:43:27;13.30;96.90
26505;DHT22;19493;48.042;7.584;2023-04-24T08:45:55;13.20;96.70
26505;DHT22;19493;48.042;7.584;2023-04-24T08:48:22;13.20;95.40
26505;DHT22;19493;48.042;7.584;2023-04-24T08:50:50;13.10;95.30
26505;DHT22;19493;48.042;7.584;2023-04-24T08:53:15;12.90;95.50
26505;DHT22;19493;48.042;7.584;2023-04-24T08:55:43;12.80;96.20
26505;DHT22;19493;48.042;7.584;2023-04-24T08:58:12;12.80;96.30
26505;DHT22;19493;48.042;7.584;2023-04-24T09:00:39;12.70;95.10
26505;DHT22;19493;48.042;7.584;2023-04-24T09:03:10;12.70;95.60
26505;DHT22;19493;48.042;7.584;2023-04-24T09:05:36;12.80;95.70
26505;DHT22;19493;48.042;7.584;2023-04-24T09:08:02;12.80;95.50
26505;DHT22;19493;48.042;7.584;2023-04-24T09:10:28;12.80;95.40
26505;DHT22;19493;48.042;7.584;2023-04-24T09:12:56;13.00;95.10
26505;DHT22;19493;48.042;7.584;2023-04-24T09:15:23;13.20;94.30
26505;DHT22;19493;48.042;7.584;2023-04-24T09:17:49;13.40;93.80
26505;DHT22;19493;48.042;7.584;2023-04-24T09:20:15;13.60;93.40
26505;DHT22;19493;48.042;7.584;2023-04-24T09:22:42;13.80;93.20
26505;DHT22;19493;48.042;7.584;2023-04-24T09:25:08;13.90;91.50
26505;DHT22;19493;48.042;7.584;2023-04-24T09:27:35;13.90;91.30
26505;DHT22;19493;48.042;7.584;2023-04-24T09:30:01;13.90;90.70
26505;DHT22;19493;48.042;7.584;2023-04-24T09:32:27;13.80;90.00
26505;DHT22;19493;48.042;7.584;2023-04-24T09:35:13;13.80;90.30
26505;DHT22;19493;48.042;7.584;2023-04-24T09:37:44;14.00;90.10
26505;DHT22;19493;48.042;7.584;2023-04-24T09:40:17;14.20;87.70
26505;DHT22;19493;48.042;7.584;2023-04-24T09:42:45;14.00;86.00
26505;DHT22;19493;48.042;7.584;2023-04-24T09:45:11;14.00;85.90
26505;DHT22;19493;48.042;7.584;2023-04-24T09:47:38;14.30;84.60
26505;DHT22;19493;48.042;7.584;2023-04-24T09:50:15;14.70;83.20
26505;DHT22;19493;48.042;7.584;2023-04-24T09:52:45;14.90;81.80
26505;DHT22;19493;48.042;7.584;2023-04-24T09:55:18;14.80;79.80
26505;DHT22;19493;48.042;7.584;2023-04-24T09:58:00;14.70;80.40
26505;DHT22;19493;48.042;7.584;2023-04-24T10:00:29;14.70;80.30
26505;DHT22;19493;48.042;7.584;2023-04-24T10:03:03;14.60;81.10
26505;DHT22;19493;48.042;7.584;2023-04-24T10:05:31;14.40;81.50
26505;DHT22;19493;48.042;7.584;2023-04-24T10:10:35;15.30;82.30
26505;DHT22;19493;48.042;7.584;2023-04-24T10:13:02;15.10;79.50
26505;DHT22;19493;48.042;7.584;2023-04-24T10:15:28;15.20;82.60
26505;DHT22;19493;48.042;7.584;2023-04-24T10:17:53;15.20;78.90
26505;DHT22;19493;48.042;7.584;2023-04-24T10:20:27;14.80;78.90
26505;DHT22;19493;48.042;7.584;2023-04-24T10:22:55;14.90;80.60
26505;DHT22;19493;48.042;7.584;2023-04-24T10:25:23;14.90;79.60
26505;DHT22;19493;48.042;7.584;2023-04-24T10:27:51;15.00;79.10
26505;DHT22;19493;48.042;7.584;2023-04-24T10:30:18;15.00;79.30
26505;DHT22;19493;48.042;7.584;2023-04-24T10:32:44;14.90;78.70
26505;DHT22;19493;48.042;7.584;2023-04-24T10:35:12;15.00;77.10
26505;DHT22;19493;48.042;7.584;2023-04-24T10:37:45;15.10;77.40
26505;DHT22;19493;48.042;7.584;2023-04-24T10:40:11;15.30;76.80
26505;DHT22;19493;48.042;7.584;2023-04-24T10:42:41;15.90;75.00
26505;DHT22;19493;48.042;7.584;2023-04-24T10:45:16;15.70;73.70
26505;DHT22;19493;48.042;7.584;2023-04-24T10:47:50;15.90;72.10
26505;DHT22;19493;48.042;7.584;2023-04-24T10:50:15;15.50;71.90
26505;DHT22;19493;48.042;7.584;2023-04-24T10:52:45;15.20;73.90
26505;DHT22;19493;48.042;7.584;2023-04-24T10:55:13;15.70;73.60
26505;DHT22;19493;48.042;7.584;2023-04-24T10:57:39;18.30;69.10
26505;DHT22;19493;48.042;7.584;2023-04-24T11:00:25;20.20;62.30
26505;DHT22;19493;48.042;7.584;2023-04-24T11:02:52;21.60;58.80
26505;DHT22;19493;48.042;7.584;2023-04-24T11:05:20;23.50;53.40
26505;DHT22;19493;48.042;7.584;2023-04-24T11:08:11;24.10;49.30
26505;DHT22;19493;48.042;7.584;2023-04-24T11:10:50;23.90;45.40
26505;DHT22;19493;48.042;7.584;2023-04-24T11:13:22;22.00;48.40
26505;DHT22;19493;48.042;7.584;2023-04-24T11:16:13;20.10;50.70
26505;DHT22;19493;48.042;7.584;2023-04-24T11:18:39;18.90;53.30
26505;DHT22;19493;48.042;7.584;2023-04-24T11:21:12;18.20;54.50
26505;DHT22;19493;48.042;7.584;2023-04-24T11:23:38;17.70;57.30
26505;DHT22;19493;48.042;7.584;2023-04-24T11:26:34;18.00;56.40
26505;DHT22;19493;48.042;7.584;2023-04-24T11:29:07;17.80;56.10
26505;DHT22;19493;48.042;7.584;2023-04-24T11:31:37;18.40;55.90
26505;DHT22;19493;48.042;7.584;2023-04-24T11:34:13;19.70;54.70
26505;DHT22;19493;48.042;7.584;2023-04-24T11:36:40;19.40;54.10
26505;DHT22;19493;48.042;7.584;2023-04-24T11:39:06;19.30;53.40
26505;DHT22;19493;48.042;7.584;2023-04-24T11:41:33;18.90;55.70
26505;DHT22;19493;48.042;7.584;2023-04-24T11:43:58;19.60;53.60
26505;DHT22;19493;48.042;7.584;2023-04-24T11:46:30;21.00;50.90
26505;DHT22;19493;48.042;7.584;2023-04-24T11:48:57;21.90;50.60
26505;DHT22;19493;48.042;7.584;2023-04-24T11:51:24;23.70;49.50
26505;DHT22;19493;48.042;7.584;2023-04-24T11:53:51;24.90;46.80
26505;DHT22;19493;48.042;7.584;2023-04-24T11:56:21;26.20;47.20
26505;DHT22;19493;48.042;7.584;2023-04-24T11:58:47;27.60;42.60
26505;DHT22;19493;48.042;7.584;2023-04-24T12:01:12;27.00;43.30
26505;DHT22;19493;48.042;7.584;2023-04-24T12:03:38;27.20;40.00
26505;DHT22;19493;48.042;7.584;2023-04-24T12:06:08;26.90;39.40
26505;DHT22;19493;48.042;7.584;2023-04-24T12:08:34;25.90;39.30
26505;DHT22;19493;48.042;7.584;2023-04-24T12:11:04;25.80;40.30
26505;DHT22;19493;48.042;7.584;2023-04-24T12:13:30;26.50;39.50
26505;DHT22;19493;48.042;7.584;2023-04-24T12:16:01;27.70;39.20
26505;DHT22;19493;48.042;7.584;2023-04-24T12:18:27;27.20;38.00
26505;DHT22;19493;48.042;7.584;2023-04-24T12:20:52;25.60;39.50
26505;DHT22;19493;48.042;7.584;2023-04-24T12:23:34;26.80;41.00
26505;DHT22;19493;48.042;7.584;2023-04-24T12:26:03;27.10;38.00
26505;DHT22;19493;48.042;7.584;2023-04-24T12:28:35;27.70;37.10
26505;DHT22;19493;48.042;7.584;2023-04-24T12:31:01;26.40;38.00
26505;DHT22;19493;48.042;7.584;2023-04-24T12:33:27;26.00;39.20
26505;DHT22;19493;48.042;7.584;2023-04-24T12:35:53;23.90;38.30
26505;DHT22;19493;48.042;7.584;2023-04-24T12:38:22;22.40;41.10
26505;DHT22;19493;48.042;7.584;2023-04-24T12:41:01;21.10;43.10
26505;DHT22;19493;48.042;7.584;2023-04-24T12:43:27;20.30;44.80
26505;DHT22;19493;48.042;7.584;2023-04-24T12:45:53;19.70;47.10
26505;DHT22;19493;48.042;7.584;2023-04-24T12:48:18;21.30;45.30
26505;DHT22;19493;48.042;7.584;2023-04-24T12:50:45;22.70;41.40
26505;DHT22;19493;48.042;7.584;2023-04-24T12:53:11;24.80;39.80
26505;DHT22;19493;48.042;7.584;2023-04-24T12:55:36;24.90;37.40
26505;DHT22;19493;48.042;7.584;2023-04-24T12:58:02;24.00;38.80
26505;DHT22;19493;48.042;7.584;2023-04-24T13:00:28;23.80;39.20
26505;DHT22;19493;48.042;7.584;2023-04-24T13:02:54;23.80;38.30
26505;DHT22;19493;48.042;7.584;2023-04-24T13:05:20;22.40;39.70
26505;DHT22;19493;48.042;7.584;2023-04-24T13:07:45;21.20;41.60
26505;DHT22;19493;48.042;7.584;2023-04-24T13:10:11;20.20;44.40
26505;DHT22;19493;48.042;7.584;2023-04-24T13:12:38;20.30;45.00
26505;DHT22;19493;48.042;7.584;2023-04-24T13:15:05;20.10;44.80
26505;DHT22;19493;48.042;7.584;2023-04-24T13:17:30;20.80;45.10
26505;DHT22;19493;48.042;7.584;2023-04-24T13:19:56;22.10;42.70
26505;DHT22;19493;48.042;7.584;2023-04-24T13:22:22;24.20;41.20
26505;DHT22;19493;48.042;7.584;2023-04-24T13:24:47;25.80;38.10
26505;DHT22;19493;48.042;7.584;2023-04-24T13:27:16;25.60;38.00
26505;DHT22;19493;48.042;7.584;2023-04-24T13:29:42;25.20;39.00
26505;DHT22;19493;48.042;7.584;2023-04-24T13:32:08;24.60;38.10
26505;DHT22;19493;48.042;7.584;2023-04-24T13:34:34;22.30;40.60
26505;DHT22;19493;48.042;7.584;2023-04-24T13:37:03;20.20;44.50
26505;DHT22;19493;48.042;7.584;2023-04-24T13:39:29;18.90;47.80
26505;DHT22;19493;48.042;7.584;2023-04-24T13:41:55;18.30;49.30
26505;DHT22;19493;48.042;7.584;2023-04-24T13:44:21;17.80;50.20
26505;DHT22;19493;48.042;7.584;2023-04-24T13:46:49;17.40;50.90
26505;DHT22;19493;48.042;7.584;2023-04-24T13:49:16;17.00;53.20
26505;DHT22;19493;48.042;7.584;2023-04-24T13:51:42;16.80;53.60
26505;DHT22;19493;48.042;7.584;2023-04-24T13:54:08;16.80;54.30
26505;DHT22;19493;48.042;7.584;2023-04-24T13:56:33;16.90;54.10
26505;DHT22;19493;48.042;7.584;2023-04-24T13:58:59;17.00;54.70
26505;DHT22;19493;48.042;7.584;2023-04-24T14:01:25;17.10;55.50
26505;DHT22;19493;48.042;7.584;2023-04-24T14:03:51;17.30;55.50
26505;DHT22;19493;48.042;7.584;2023-04-24T14:06:20;17.00;55.60
26505;DHT22;19493;48.042;7.584;2023-04-24T14:08:47;16.80;57.10
26505;DHT22;19493;48.042;7.584;2023-04-24T14:11:13;17.50;56.60
26505;DHT22;19493;48.042;7.584;2023-04-24T14:13:40;17.90;55.50
26505;DHT22;19493;48.042;7.584;2023-04-24T14:16:06;17.90;56.20
26505;DHT22;19493;48.042;7.584;2023-04-24T14:18:31;17.40;56.60
26505;DHT22;19493;48.042;7.584;2023-04-24T14:20:57;17.30;58.00
26505;DHT22;19493;48.042;7.584;2023-04-24T14:23:23;17.10;58.70
26505;DHT22;19493;48.042;7.584;2023-04-24T14:25:49;17.30;57.90
26505;DHT22;19493;48.042;7.584;2023-04-24T14:28:17;19.50;55.60
26505;DHT22;19493;48.042;7.584;2023-04-24T14:30:43;22.80;48.60
26505;DHT22;19493;48.042;7.584;2023-04-24T14:33:09;25.10;43.50
26505;DHT22;19493;48.042;7.584;2023-04-24T14:35:36;25.70;42.10
26505;DHT22;19493;48.042;7.584;2023-04-24T14:38:01;24.60;42.00
26505;DHT22;19493;48.042;7.584;2023-04-24T14:40:27;24.30;42.80
26505;DHT22;19493;48.042;7.584;2023-04-24T14:42:53;24.50;42.60
26505;DHT22;19493;48.042;7.584;2023-04-24T14:45:18;24.30;42.50
26505;DHT22;19493;48.042;7.584;2023-04-24T14:47:44;24.90;42.90
26505;DHT22;19493;48.042;7.584;2023-04-24T14:50:10;24.90;41.30
26505;DHT22;19493;48.042;7.584;2023-04-24T14:52:37;23.70;43.40
26505;DHT22;19493;48.042;7.584;2023-04-24T14:55:03;23.40;44.30
26505;DHT22;19493;48.042;7.584;2023-04-24T14:57:29;22.20;45.60
26505;DHT22;19493;48.042;7.584;2023-04-24T14:59:55;20.50;48.20
26505;DHT22;19493;48.042;7.584;2023-04-24T15:02:21;19.00;51.90
26505;DHT22;19493;48.042;7.584;2023-04-24T15:04:46;17.90;54.50
26505;DHT22;19493;48.042;7.584;2023-04-24T15:07:12;17.50;55.70
26505;DHT22;19493;48.042;7.584;2023-04-24T15:09:37;17.20;55.70
26505;DHT22;19493;48.042;7.584;2023-04-24T15:12:03;17.00;57.10
26505;DHT22;19493;48.042;7.584;2023-04-24T15:14:29;16.80;57.20
26505;DHT22;19493;48.042;7.584;2023-04-24T15:16:55;16.80;57.40
26505;DHT22;19493;48.042;7.584;2023-04-24T15:19:21;17.00;57.70
26505;DHT22;19493;48.042;7.584;2023-04-24T15:21:46;16.80;58.10
26505;DHT22;19493;48.042;7.584;2023-04-24T15:24:12;16.60;56.90
26505;DHT22;19493;48.042;7.584;2023-04-24T15:26:37;16.50;57.40
26505;DHT22;19493;48.042;7.584;2023-04-24T15:29:03;16.20;56.00
26505;DHT22;19493;48.042;7.584;2023-04-24T15:31:28;15.90;56.40
26505;DHT22;19493;48.042;7.584;2023-04-24T15:33:54;15.80;57.30
26505;DHT22;19493;48.042;7.584;2023-04-24T15:36:20;15.70;57.70